Cranberry Portage, Canada
Current Conditions -  °F | °C
As of 4:00 AM on Monday 20 Oct 2014 (Local Time) from CYQD Reporting Station
Overcast Overcast  
Wind Chill: 39°   Ceiling: 2000
Heat Index: 43°   Visibility: 15mi
Dew Point: 39°   Wind: 7mph
Humidity: 87%   Direction: 120°ESE
Pressure: 29.99"   Gusts: NA
Location:  54.59°N, 101.38°W
Report Text: CYQD 200900Z 12006KT 15SM OVC020 06/04 A2999 RMK SC8 SLP166
Loading
Personal Weather Stations






























Interactive Weather Map
Tropical Storm Tracking
New forecast layout! Learn more

10-Day Weather Forecast

Advertisements
Track Severe Weather on mobile